Time;durP1;ratioP1;P1;durP2;ratioP2;P2;SDS_P1;SDS_P2;PMS_P1;PMS_P2;Temp;Humidity;BMP_temperature;BMP_pressure;BME280_temperature;BME280_humidity;BME280_pressure;Samples;Min_cycle;Max_cycle;Signal;HPM_P1;HPM_P2
2023/03/03 00:01:14;;;;;;;0.60;0.60;;;;;;;7.26;100.00;99729.66;5026706;28;20202;-66
2023/03/03 00:03:40;;;;;;;3.90;1.43;;;;;;;7.28;100.00;99727.91;5013363;28;20209;-66
2023/03/03 00:06:10;;;;;;;0.70;0.70;;;;;;;7.30;100.00;99726.19;5030249;28;20562;-66
2023/03/03 00:08:37;;;;;;;1.83;0.80;;;;;;;7.36;100.00;99726.13;5021696;28;20200;-65
2023/03/03 00:11:05;;;;;;;0.60;0.60;;;;;;;7.11;100.00;99683.91;5027741;28;20205;-66
2023/03/03 00:13:32;;;;;;;0.50;0.50;;;;;;;7.26;100.00;99706.72;5030310;28;20748;-66
2023/03/03 00:16:14;;;;;;;0.40;0.40;;;;;;;7.28;100.00;99706.66;5029362;28;20201;-66
2023/03/03 00:18:44;;;;;;;0.57;0.57;;;;;;;7.29;100.00;99704.13;5016484;28;20693;-66
2023/03/03 00:21:24;;;;;;;1.00;1.00;;;;;;;7.31;100.00;99697.28;5015752;28;20206;-66
2023/03/03 00:23:51;;;;;;;0.50;0.50;;;;;;;7.29;100.00;99691.38;5010116;28;20214;-68
2023/03/03 00:26:22;;;;;;;0.57;0.57;;;;;;;7.33;100.00;99693.00;5017959;28;20288;-68
2023/03/03 00:28:51;;;;;;;1.03;1.03;;;;;;;7.32;100.00;99682.84;5016184;28;20197;-68
2023/03/03 00:31:21;;;;;;;0.70;0.70;;;;;;;7.30;100.00;99684.56;5024646;28;20312;-68
2023/03/03 00:33:53;;;;;;;0.47;0.47;;;;;;;7.30;100.00;99679.47;5021573;28;20217;-68
2023/03/03 00:36:31;;;;;;;0.60;0.60;;;;;;;7.30;100.00;99675.19;5018447;28;20194;-68
2023/03/03 00:39:11;;;;;;;0.43;0.43;;;;;;;7.33;100.00;99679.44;5022037;28;20261;-66
2023/03/03 00:41:39;;;;;;;0.50;0.50;;;;;;;7.33;100.00;99675.16;5012665;28;20194;-66
2023/03/03 00:44:35;;;;;;;0.67;0.67;;;;;;;7.25;100.00;99659.13;5017285;28;20232;-66
2023/03/03 00:47:15;;;;;;;0.60;0.60;;;;;;;7.32;100.00;99668.38;5023772;28;20217;-67
2023/03/03 00:49:43;;;;;;;0.50;0.50;;;;;;;7.20;100.00;99653.25;5017654;28;20201;-66
2023/03/03 00:52:16;;;;;;;0.77;0.77;;;;;;;7.18;100.00;99654.09;5010862;28;20202;-66
2023/03/03 00:54:42;;;;;;;0.50;0.50;;;;;;;7.16;100.00;99651.59;5014694;28;20205;-66
2023/03/03 00:57:11;;;;;;;0.40;0.40;;;;;;;7.13;100.00;99645.69;5017214;28;20225;-66
2023/03/03 00:59:38;;;;;;;0.53;0.53;;;;;;;7.13;100.00;99643.97;5024389;28;20205;-68
2023/03/03 01:02:05;;;;;;;0.60;0.60;;;;;;;7.12;100.00;99643.97;5023179;28;20248;-68
2023/03/03 01:04:32;;;;;;;0.67;0.67;;;;;;;7.07;100.00;99641.50;5029179;28;20197;-68
2023/03/03 01:06:59;;;;;;;0.70;0.70;;;;;;;7.01;100.00;99646.66;5027659;28;20214;-68
2023/03/03 01:09:28;;;;;;;0.80;0.80;;;;;;;7.01;100.00;99649.19;5020096;28;20682;-66
2023/03/03 01:11:55;;;;;;;1.50;1.00;;;;;;;6.99;100.00;99638.19;5022842;28;20757;-66
2023/03/03 01:14:22;;;;;;;0.60;0.60;;;;;;;6.97;100.00;99644.19;5023441;28;20214;-66
2023/03/03 01:16:49;;;;;;;0.50;0.50;;;;;;;6.97;100.00;99641.63;5014868;28;20206;-66
2023/03/03 01:19:15;;;;;;;0.50;0.50;;;;;;;6.87;100.00;99612.88;5026642;28;20300;-66
2023/03/03 01:21:42;;;;;;;0.57;0.57;;;;;;;7.02;100.00;99643.25;5021901;28;20197;-66
2023/03/03 01:24:09;;;;;;;4.20;0.90;;;;;;;7.03;100.00;99629.66;5027113;28;20201;-66
2023/03/03 01:26:37;;;;;;;0.53;0.53;;;;;;;7.08;100.00;99630.44;5017716;28;20272;-66
2023/03/03 01:29:04;;;;;;;0.50;0.50;;;;;;;7.10;100.00;99638.91;5017139;28;20258;-66
2023/03/03 01:31:31;;;;;;;0.60;0.60;;;;;;;7.11;100.00;99632.94;5021497;28;20225;-66
2023/03/03 01:33:57;;;;;;;0.50;0.50;;;;;;;7.13;100.00;99633.78;5021286;28;20189;-66
2023/03/03 01:36:24;;;;;;;0.43;0.43;;;;;;;7.14;100.00;99637.19;5021701;28;20646;-66
2023/03/03 01:38:52;;;;;;;0.60;0.60;;;;;;;7.19;100.00;99633.69;5026681;28;20205;-66
2023/03/03 01:41:19;;;;;;;0.77;0.77;;;;;;;7.22;100.00;99631.09;5020289;28;20233;-66
2023/03/03 01:43:49;;;;;;;0.47;0.47;;;;;;;7.22;100.00;99632.81;5025096;28;20202;-66
2023/03/03 01:46:45;;;;;;;0.70;0.70;;;;;;;7.26;100.00;99632.75;5019887;28;20197;-66
2023/03/03 01:49:16;;;;;;;0.60;0.60;;;;;;;7.26;100.00;99642.13;5012597;28;20949;-66
2023/03/03 01:51:48;;;;;;;0.50;0.50;;;;;;;7.27;100.00;99639.53;5020165;28;20201;-66
2023/03/03 01:54:21;;;;;;;0.50;0.50;;;;;;;7.29;100.00;99632.72;5013676;28;20217;-66
2023/03/03 01:56:50;;;;;;;0.50;0.50;;;;;;;7.30;100.00;99634.38;5012828;28;20194;-66
2023/03/03 01:59:21;;;;;;;1.17;1.13;;;;;;;7.28;100.00;99625.94;5014398;28;20205;-66
2023/03/03 02:01:48;;;;;;;0.80;0.80;;;;;;;7.29;100.00;99622.53;5030862;28;20801;-66
2023/03/03 02:04:15;;;;;;;0.40;0.40;;;;;;;7.28;100.00;99615.72;5029185;28;20216;-66
2023/03/03 02:06:47;;;;;;;0.50;0.50;;;;;;;7.30;100.00;99621.63;5026197;28;20226;-66
2023/03/03 02:09:21;;;;;;;0.90;0.90;;;;;;;7.30;100.00;99619.09;5021003;28;20749;-66
2023/03/03 02:11:52;;;;;;;0.57;0.57;;;;;;;7.32;100.00;99617.38;5023824;28;20194;-66
2023/03/03 02:14:20;;;;;;;0.53;0.53;;;;;;;7.32;100.00;99612.28;5019279;28;20201;-66
2023/03/03 02:16:47;;;;;;;1.23;1.00;;;;;;;7.32;100.00;99614.81;5017289;28;20200;-67
2023/03/03 02:19:22;;;;;;;0.50;0.50;;;;;;;7.32;100.00;99617.38;5013883;28;20202;-66
2023/03/03 02:21:49;;;;;;;0.60;0.60;;;;;;;7.34;100.00;99613.09;5017016;28;20646;-66
2023/03/03 02:24:26;;;;;;;1.10;1.10;;;;;;;7.31;100.00;99612.28;5015305;28;21071;-66
2023/03/03 02:26:55;;;;;;;0.60;0.60;;;;;;;7.29;100.00;99611.47;5012288;28;20225;-66
2023/03/03 02:29:21;;;;;;;0.43;0.43;;;;;;;7.27;100.00;99606.38;5016493;28;20209;-66
2023/03/03 02:31:48;;;;;;;0.53;0.53;;;;;;;7.27;100.00;99613.22;5017365;28;20229;-66
2023/03/03 02:34:15;;;;;;;0.50;0.50;;;;;;;7.28;100.00;99608.06;5025621;28;20205;-66
2023/03/03 02:36:42;;;;;;;0.50;0.50;;;;;;;7.21;100.00;99603.06;5014024;28;20195;-66
2023/03/03 02:39:12;;;;;;;0.93;0.93;;;;;;;7.22;100.00;99610.72;5023373;28;20686;-66
2023/03/03 02:41:43;;;;;;;0.50;0.50;;;;;;;7.22;100.00;99604.75;5011725;28;20638;-66
2023/03/03 02:44:13;;;;;;;1.10;1.10;;;;;;;7.24;100.00;99608.13;5031303;28;20208;-66
2023/03/03 02:46:41;;;;;;;0.50;0.50;;;;;;;7.23;100.00;99601.38;5022908;28;20216;-66
2023/03/03 02:49:11;;;;;;;0.50;0.50;;;;;;;7.18;100.00;99596.31;5018488;28;20213;-66
2023/03/03 02:51:38;;;;;;;1.23;1.23;;;;;;;7.14;100.00;99594.66;5027196;28;20212;-68
2023/03/03 02:54:06;;;;;;;0.60;0.60;;;;;;;7.14;100.00;99609.94;5014292;28;20204;-68
2023/03/03 02:56:33;;;;;;;0.60;0.60;;;;;;;7.10;100.00;99610.88;5027550;28;20256;-69
2023/03/03 02:59:00;;;;;;;0.60;0.60;;;;;;;7.10;100.00;99608.34;5025770;28;20666;-66
2023/03/03 03:01:30;;;;;;;0.50;0.50;;;;;;;7.03;100.00;99593.97;5029099;28;20605;-66
2023/03/03 03:03:57;;;;;;;0.60;0.60;;;;;;;7.13;100.00;99612.53;5028801;28;20267;-66
2023/03/03 03:06:24;;;;;;;0.60;0.60;;;;;;;7.11;100.00;99607.44;5028790;28;20202;-66
2023/03/03 03:08:51;;;;;;;0.50;0.50;;;;;;;7.03;100.00;99599.06;5023699;28;20221;-66
2023/03/03 03:11:18;;;;;;;0.50;0.50;;;;;;;7.10;100.00;99604.94;5022851;28;20202;-66
2023/03/03 03:13:44;;;;;;;1.43;1.33;;;;;;;7.09;100.00;99606.63;5011538;28;20198;-65
2023/03/03 03:16:11;;;;;;;0.40;0.40;;;;;;;7.00;100.00;99604.22;5023406;28;20256;-66
2023/03/03 03:18:39;;;;;;;0.50;0.50;;;;;;;6.99;100.00;99605.06;5027070;28;20626;-66
2023/03/03 03:21:08;;;;;;;0.63;0.63;;;;;;;7.02;100.00;99596.53;5011160;28;20198;-66
2023/03/03 03:23:35;;;;;;;1.57;1.57;;;;;;;7.03;100.00;99593.97;5011289;28;20206;-66
2023/03/03 03:26:02;;;;;;;0.43;0.43;;;;;;;7.07;100.00;99594.78;5026679;28;20284;-66
2023/03/03 03:28:30;;;;;;;0.50;0.50;;;;;;;7.10;100.00;99595.59;5011009;28;20237;-66
2023/03/03 03:30:57;;;;;;;0.77;0.77;;;;;;;7.11;100.00;99589.59;5019382;28;20242;-66
2023/03/03 03:33:23;;;;;;;0.60;0.60;;;;;;;7.13;100.00;99597.25;5012282;28;20201;-67
2023/03/03 03:35:51;;;;;;;0.60;0.60;;;;;;;7.15;100.00;99598.06;5017932;28;20198;-67
2023/03/03 03:38:18;;;;;;;0.50;0.50;;;;;;;7.17;100.00;99601.44;5013563;28;20193;-66
2023/03/03 03:40:45;;;;;;;0.53;0.53;;;;;;;7.22;100.00;99597.13;5024080;28;20585;-66
2023/03/03 03:43:12;;;;;;;0.63;0.63;;;;;;;7.20;100.00;99599.72;5017635;28;20194;-66
2023/03/03 03:45:39;;;;;;;0.90;0.90;;;;;;;7.16;100.00;99590.41;5014533;28;20208;-66
2023/03/03 03:48:06;;;;;;;0.67;0.67;;;;;;;7.19;100.00;99594.59;5011244;28;20217;-66
2023/03/03 03:50:33;;;;;;;0.60;0.60;;;;;;;7.18;100.00;99592.91;5014113;28;20681;-66
2023/03/03 03:53:01;;;;;;;0.50;0.50;;;;;;;7.20;100.00;99589.50;5011321;28;20209;-68
2023/03/03 03:55:28;;;;;;;0.40;0.40;;;;;;;7.15;100.00;99592.97;5014191;28;20208;-66
2023/03/03 03:57:55;;;;;;;0.50;0.50;;;;;;;7.15;100.00;99591.25;5023146;28;20272;-66
2023/03/03 04:00:23;;;;;;;0.70;0.70;;;;;;;7.12;100.00;99586.19;5014474;28;20198;-67
2023/03/03 04:02:49;;;;;;;0.60;0.60;;;;;;;7.11;100.00;99587.06;5016696;28;20674;-66
2023/03/03 04:05:17;;;;;;;0.50;0.50;;;;;;;6.93;100.00;99569.47;5021866;28;20872;-66
2023/03/03 04:07:44;;;;;;;0.57;0.57;;;;;;;7.06;100.00;99586.28;5018933;28;20333;-66
2023/03/03 04:10:12;;;;;;;0.60;0.60;;;;;;;7.07;100.00;99600.72;5013792;28;20202;-66
2023/03/03 04:12:39;;;;;;;0.60;0.60;;;;;;;7.08;100.00;99592.19;5010572;28;20197;-66
2023/03/03 04:15:09;;;;;;;0.50;0.50;;;;;;;7.11;100.00;99601.53;5018491;28;20260;-66
2023/03/03 04:17:36;;;;;;;0.43;0.43;;;;;;;7.10;100.00;99590.50;4992914;28;20587;-66
2023/03/03 04:20:04;;;;;;;0.70;0.70;;;;;;;7.08;100.00;99596.44;5015199;28;20253;-66
2023/03/03 04:22:32;;;;;;;0.70;0.70;;;;;;;7.06;100.00;99593.94;5017383;28;20675;-66
2023/03/03 04:24:59;;;;;;;0.50;0.50;;;;;;;7.05;100.00;99599.88;5022609;28;20198;-67
2023/03/03 04:27:27;;;;;;;0.43;0.43;;;;;;;7.03;100.00;99599.06;5019528;28;20217;-66
2023/03/03 04:29:54;;;;;;;0.50;0.50;;;;;;;6.87;100.00;99567.00;5020021;28;20217;-66
2023/03/03 04:32:21;;;;;;;0.60;0.60;;;;;;;7.04;100.00;99595.66;5020962;28;20210;-66
2023/03/03 04:34:47;;;;;;;0.60;0.60;;;;;;;7.01;100.00;99582.94;5024171;28;20236;-66
2023/03/03 04:37:14;;;;;;;1.60;1.27;;;;;;;7.05;100.00;99597.34;5022908;28;20202;-66
2023/03/03 04:39:41;;;;;;;0.73;0.73;;;;;;;7.07;100.00;99590.53;5018279;28;20264;-66
2023/03/03 04:42:08;;;;;;;0.50;0.50;;;;;;;7.07;100.00;99594.78;5016478;28;20655;-66
2023/03/03 04:44:36;;;;;;;1.00;1.00;;;;;;;7.08;100.00;99594.75;5022005;28;20653;-66
2023/03/03 04:47:03;;;;;;;1.57;1.57;;;;;;;7.08;100.00;99597.28;5028719;28;20202;-66
2023/03/03 04:49:29;;;;;;;0.60;0.60;;;;;;;7.08;100.00;99592.19;5021890;28;20680;-66
2023/03/03 04:51:57;;;;;;;0.80;0.80;;;;;;;7.08;100.00;99592.19;5025188;28;20628;-66
2023/03/03 04:54:24;;;;;;;0.40;0.40;;;;;;;7.11;100.00;99583.69;5024057;28;20198;-66
2023/03/03 04:56:50;;;;;;;0.60;0.60;;;;;;;7.05;100.00;99587.13;5022726;28;20272;-66
2023/03/03 04:59:17;;;;;;;0.57;0.57;;;;;;;7.01;100.00;99585.47;5024217;28;20205;-66
2023/03/03 05:01:46;;;;;;;0.67;0.67;;;;;;;6.99;100.00;99582.13;5023199;28;20201;-66
2023/03/03 05:04:13;;;;;;;1.17;1.17;;;;;;;7.01;100.00;99595.69;5017693;28;20297;-68
2023/03/03 05:06:42;;;;;;;0.77;0.77;;;;;;;7.01;100.00;99598.22;5022449;28;20198;-68
2023/03/03 05:09:09;;;;;;;0.60;0.60;;;;;;;6.99;100.00;99604.22;5023773;28;20222;-68
2023/03/03 05:11:36;;;;;;;0.53;0.53;;;;;;;6.99;100.00;99599.13;5024858;28;20206;-68
2023/03/03 05:14:03;;;;;;;0.40;0.40;;;;;;;6.97;100.00;99596.59;5026136;28;20206;-68
2023/03/03 05:16:30;;;;;;;0.60;0.60;;;;;;;6.97;100.00;99599.16;5018939;28;20292;-68
2023/03/03 05:18:58;;;;;;;0.50;0.50;;;;;;;6.97;100.00;99601.69;5022383;28;20197;-68
2023/03/03 05:21:24;;;;;;;0.60;0.60;;;;;;;6.90;100.00;99595.00;5021237;28;20857;-68
2023/03/03 05:23:51;;;;;;;0.43;0.43;;;;;;;6.88;100.00;99599.28;5021171;28;20257;-69
2023/03/03 05:26:18;;;;;;;0.50;0.50;;;;;;;6.90;100.00;99601.78;5023093;28;20201;-68
2023/03/03 05:28:45;;;;;;;0.50;0.50;;;;;;;6.95;100.00;99595.75;5023739;28;20209;-66
2023/03/03 05:31:11;;;;;;;0.90;0.90;;;;;;;6.98;100.00;99600.81;5019695;28;20226;-66
2023/03/03 05:33:38;;;;;;;0.60;0.60;;;;;;;6.97;100.00;99601.69;5021503;28;20555;-68
2023/03/03 05:36:07;;;;;;;0.90;0.73;;;;;;;6.92;100.00;99594.94;5020884;28;20205;-68
2023/03/03 05:38:34;;;;;;;1.20;1.10;;;;;;;7.01;100.00;99600.78;5022620;28;20198;-66
2023/03/03 05:41:01;;;;;;;0.50;0.50;;;;;;;7.06;100.00;99604.13;5020418;28;20645;-66
2023/03/03 05:43:28;;;;;;;0.43;0.43;;;;;;;7.07;100.00;99616.03;5022944;28;20554;-66
2023/03/03 05:45:56;;;;;;;0.80;0.80;;;;;;;7.00;100.00;99604.22;5025657;28;20264;-66
2023/03/03 05:48:22;;;;;;;0.63;0.63;;;;;;;7.00;100.00;99608.47;5017710;28;20257;-66
2023/03/03 05:50:49;;;;;;;0.80;0.80;;;;;;;7.00;100.00;99606.75;5019618;28;20201;-75
2023/03/03 05:53:17;;;;;;;0.57;0.57;;;;;;;7.06;100.00;99616.03;5021228;28;20267;-77
2023/03/03 05:55:44;;;;;;;0.60;0.60;;;;;;;6.99;100.00;99620.34;5021996;28;20206;-77
2023/03/03 05:58:11;;;;;;;0.50;0.50;;;;;;;6.98;100.00;99613.56;5017904;28;20198;-76
2023/03/03 06:00:38;;;;;;;0.50;0.50;;;;;;;6.98;100.00;99610.19;5027909;28;20213;-77
2023/03/03 06:03:05;;;;;;;0.50;0.50;;;;;;;7.03;100.00;99613.50;5026147;28;20221;-77
2023/03/03 06:05:32;;;;;;;0.50;0.50;;;;;;;7.04;100.00;99616.06;5016196;28;20201;-77
2023/03/03 06:07:59;;;;;;;0.40;0.40;;;;;;;7.00;100.00;99616.94;5029196;28;20268;-77
2023/03/03 06:10:28;;;;;;;0.50;0.50;;;;;;;7.06;100.00;99618.56;5015724;28;20647;-76
2023/03/03 06:12:55;;;;;;;0.80;0.80;;;;;;;7.02;100.00;99616.91;5031086;28;20225;-77
2023/03/03 06:15:22;;;;;;;3.00;1.73;;;;;;;7.00;100.00;99614.41;5024096;28;20552;-76
2023/03/03 06:17:48;;;;;;;0.50;0.50;;;;;;;7.08;100.00;99625.31;5022045;28;20195;-77
2023/03/03 06:20:15;;;;;;;0.40;0.40;;;;;;;7.02;100.00;99622.88;5017127;28;20260;-77
2023/03/03 06:22:42;;;;;;;1.43;1.43;;;;;;;7.05;100.00;99625.38;5016278;28;20629;-77
2023/03/03 06:25:09;;;;;;;0.40;0.40;;;;;;;6.96;100.00;99632.28;5023496;28;20686;-77
2023/03/03 06:27:37;;;;;;;0.40;0.40;;;;;;;7.03;100.00;99631.34;5024572;28;20201;-77
2023/03/03 06:30:05;;;;;;;0.60;0.60;;;;;;;7.07;100.00;99633.88;5019526;28;20230;-77
2023/03/03 06:32:32;;;;;;;1.40;1.40;;;;;;;7.12;100.00;99639.72;5021039;28;20629;-77
2023/03/03 06:34:59;;;;;;;0.70;0.70;;;;;;;7.13;100.00;99635.47;5017290;28;20206;-76
2023/03/03 06:37:26;;;;;;;0.80;0.80;;;;;;;7.19;100.00;99632.84;5019099;28;20209;-77
2023/03/03 06:39:53;;;;;;;0.43;0.43;;;;;;;7.24;100.00;99641.28;5024734;28;20300;-76
2023/03/03 06:42:20;;;;;;;0.50;0.50;;;;;;;7.17;100.00;99622.66;5018572;28;20701;-77
2023/03/03 06:44:48;;;;;;;0.70;0.70;;;;;;;7.28;100.00;99635.28;5011702;28;20194;-77
2023/03/03 06:47:15;;;;;;;0.40;0.40;;;;;;;7.34;100.00;99625.84;5020973;28;20228;-77
2023/03/03 06:49:42;;;;;;;0.50;0.50;;;;;;;7.34;100.00;99630.94;5021779;28;20217;-76
2023/03/03 06:52:13;;;;;;;0.70;0.70;;;;;;;7.36;100.00;99629.22;5012588;28;20204;-76
2023/03/03 06:54:40;;;;;;;0.60;0.60;;;;;;;7.44;100.00;99631.66;5015477;28;20289;-70
2023/03/03 06:57:16;;;;;;;0.50;0.50;;;;;;;7.52;100.00;99629.00;5012272;28;20210;-69
2023/03/03 06:59:43;;;;;;;0.60;0.60;;;;;;;7.59;100.00;99635.72;5018656;28;20248;-75
2023/03/03 07:02:17;;;;;;;0.50;0.50;;;;;;;7.69;100.00;99632.16;5020779;28;20209;-73
2023/03/03 07:04:45;;;;;;;0.63;0.63;;;;;;;7.74;100.00;99622.72;5016911;28;20244;-72
2023/03/03 07:07:17;;;;;;;0.67;0.67;;;;;;;7.75;100.00;99616.75;5019120;28;20260;-77
2023/03/03 07:09:49;;;;;;;0.73;0.73;;;;;;;7.82;100.00;99628.53;5021207;28;20229;-76
2023/03/03 07:12:18;;;;;;;0.73;0.73;;;;;;;7.87;100.00;99621.66;5017167;28;20633;-60
2023/03/03 07:14:46;;;;;;;0.43;0.43;;;;;;;7.78;100.00;99626.91;5020647;28;20193;-61
2023/03/03 07:17:17;;;;;;;0.60;0.60;;;;;;;7.80;100.00;99620.91;5017245;28;20284;-61
2023/03/03 07:19:45;;;;;;;0.60;0.60;;;;;;;7.79;100.00;99623.47;5016004;28;20252;-61
2023/03/03 07:22:16;;;;;;;0.53;0.53;;;;;;;7.70;100.00;99628.72;5021260;28;20206;-61
2023/03/03 07:24:45;;;;;;;0.60;0.60;;;;;;;7.76;100.00;99626.09;5023464;28;20220;-61
2023/03/03 07:27:17;;;;;;;0.43;0.43;;;;;;;7.81;100.00;99631.97;5015467;28;20202;-61
2023/03/03 07:29:47;;;;;;;0.60;0.60;;;;;;;7.73;100.00;99621.88;5020563;28;20643;-60
2023/03/03 07:32:26;;;;;;;0.40;0.40;;;;;;;7.71;100.00;99630.44;5015666;28;20209;-61
2023/03/03 07:34:55;;;;;;;0.70;0.70;;;;;;;7.64;100.00;99608.41;5024469;28;20322;-61
2023/03/03 07:37:29;;;;;;;0.70;0.70;;;;;;;7.76;100.00;99626.94;5018918;28;20682;-62
2023/03/03 07:39:56;;;;;;;0.60;0.60;;;;;;;7.81;100.00;99629.44;5012568;28;20284;-62
2023/03/03 07:42:27;;;;;;;0.67;0.67;;;;;;;7.87;100.00;99627.63;5016956;28;20201;-62
2023/03/03 07:44:56;;;;;;;0.70;0.70;;;;;;;8.01;100.00;99624.84;5020586;28;20756;-62
2023/03/03 07:47:26;;;;;;;0.70;0.70;;;;;;;7.97;100.00;99618.09;5013316;28;20209;-63
2023/03/03 07:49:55;;;;;;;0.90;0.90;;;;;;;7.98;100.00;99627.44;5017030;28;20224;-63
2023/03/03 07:52:28;;;;;;;0.60;0.60;;;;;;;8.05;100.00;99626.47;5013972;28;20209;-64
2023/03/03 07:54:57;;;;;;;0.50;0.50;;;;;;;8.06;100.00;99612.00;5012072;28;20909;-63
2023/03/03 07:57:26;;;;;;;0.50;0.50;;;;;;;8.19;100.00;99627.09;5020619;28;20202;-63
2023/03/03 08:00:00;;;;;;;0.73;0.73;;;;;;;8.11;100.00;99625.53;5016826;28;20194;-62
2023/03/03 08:02:41;;;;;;;0.77;0.77;;;;;;;8.15;100.00;99622.91;5013823;28;20205;-62
2023/03/03 08:05:33;;;;;;;0.60;0.60;;;;;;;8.18;100.00;99622.84;5020615;28;20205;-62
2023/03/03 08:08:19;;;;;;;0.63;0.63;;;;;;;8.16;100.00;99623.75;5019699;28;20205;-62
2023/03/03 08:10:48;;;;;;;0.50;0.50;;;;;;;8.13;100.00;99622.09;5023908;28;20197;-62
2023/03/03 08:13:20;;;;;;;0.40;0.40;;;;;;;8.16;100.00;99616.09;5017435;28;20201;-62
2023/03/03 08:15:50;;;;;;;0.43;0.43;;;;;;;8.14;100.00;99618.66;5020501;28;20213;-62
2023/03/03 08:18:24;;;;;;;0.50;0.50;;;;;;;8.01;100.00;99614.66;5021621;28;20263;-62
2023/03/03 08:20:56;;;;;;;0.57;0.57;;;;;;;7.80;100.00;99589.44;5025699;28;20267;-62
2023/03/03 08:23:23;;;;;;;0.50;0.50;;;;;;;7.92;100.00;99604.56;5029794;28;20206;-62
2023/03/03 08:25:51;;;;;;;0.60;0.60;;;;;;;8.01;100.00;99604.44;5020292;28;20698;-63
2023/03/03 08:28:19;;;;;;;0.40;0.40;;;;;;;8.08;100.00;99603.44;5017297;28;20198;-62
2023/03/03 08:30:47;;;;;;;0.50;0.50;;;;;;;7.95;100.00;99576.44;5022435;28;20265;-63
2023/03/03 08:33:14;;;;;;;1.53;1.47;;;;;;;8.09;100.00;99592.38;5016683;28;20202;-63
2023/03/03 08:35:43;;;;;;;1.10;1.10;;;;;;;8.25;100.00;99593.78;5019936;28;20201;-62
2023/03/03 08:38:10;;;;;;;0.43;0.43;;;;;;;8.32;100.00;99594.56;5029222;28;20213;-62
2023/03/03 08:40:37;;;;;;;2.93;1.33;;;;;;;8.35;100.00;99590.22;5025737;28;20616;-62
2023/03/03 08:43:05;;;;;;;0.60;0.60;;;;;;;8.34;100.00;99585.13;5021191;28;20654;-62
2023/03/03 08:45:32;;;;;;;0.50;0.50;;;;;;;8.35;100.00;99590.22;5021325;28;20566;-61
2023/03/03 08:48:01;;;;;;;0.73;0.73;;;;;;;8.38;100.00;99581.66;5018082;28;20589;-61
2023/03/03 08:50:28;;;;;;;1.03;1.03;;;;;;;8.47;100.00;99583.19;5017637;28;20258;-59
2023/03/03 08:52:57;;;;;;;0.60;0.60;;;;;;;8.30;100.00;99558.00;5023342;28;20263;-59
2023/03/03 08:55:24;;;;;;;1.13;1.13;;;;;;;8.42;100.00;99581.59;5020526;28;20584;-60
2023/03/03 08:57:51;;;;;;;0.60;0.60;;;;;;;8.43;100.00;99583.25;5019485;28;20617;-60
2023/03/03 09:00:19;;;;;;;0.40;0.40;;;;;;;8.46;100.00;99586.66;5022295;28;20209;-60
2023/03/03 09:02:46;;;;;;;0.60;0.60;;;;;;;8.45;100.00;99580.69;5029593;28;20723;-60
2023/03/03 09:05:13;;;;;;;0.67;0.67;;;;;;;8.42;100.00;99578.19;5015385;28;20193;-60
2023/03/03 09:07:41;;;;;;;0.47;0.47;;;;;;;8.49;100.00;99581.47;5023232;28;20197;-60
2023/03/03 09:10:11;;;;;;;0.50;0.50;;;;;;;8.50;100.00;99578.06;5020279;28;20228;-61
2023/03/03 09:12:40;;;;;;;0.70;0.70;;;;;;;8.49;100.00;99581.47;5023158;28;20599;-61
2023/03/03 09:15:22;;;;;;;0.50;0.50;;;;;;;8.50;100.00;99573.75;5018345;28;20202;-60
2023/03/03 09:17:49;;;;;;;0.50;0.50;;;;;;;8.48;100.00;99574.66;5022678;28;20204;-60
2023/03/03 09:20:32;;;;;;;0.40;0.40;;;;;;;8.46;100.00;99573.88;5015467;28;20202;-61
2023/03/03 09:23:00;;;;;;;0.53;0.53;;;;;;;8.43;100.00;99575.59;5026366;28;20201;-61
2023/03/03 09:25:33;;;;;;;0.70;0.70;;;;;;;8.35;100.00;99568.94;5020189;28;20237;-61
2023/03/03 09:28:00;;;;;;;0.50;0.50;;;;;;;8.40;100.00;99577.38;5023817;28;20209;-61
2023/03/03 09:30:38;;;;;;;0.60;0.60;;;;;;;8.34;100.00;99563.00;5018380;28;20247;-61
2023/03/03 09:33:25;;;;;;;0.70;0.70;;;;;;;8.43;100.00;99567.94;5023631;28;20217;-62
2023/03/03 09:36:00;;;;;;;0.60;0.60;;;;;;;8.46;100.00;99567.06;5021900;28;20258;-62
2023/03/03 09:38:30;;;;;;;0.80;0.80;;;;;;;8.48;100.00;99569.56;5023638;28;20665;-62
2023/03/03 09:41:32;;;;;;;0.40;0.40;;;;;;;8.47;100.00;99557.66;5020777;28;20201;-62
2023/03/03 09:44:27;;;;;;;1.00;1.00;;;;;;;8.52;100.00;99566.09;5018509;28;20688;-61
2023/03/03 09:47:09;;;;;;;0.57;0.57;;;;;;;8.42;100.00;99571.38;5022041;28;20221;-62
2023/03/03 09:49:46;;;;;;;0.50;0.50;;;;;;;8.32;100.00;99562.19;5019595;28;20317;-62
2023/03/03 09:52:25;;;;;;;0.50;0.50;;;;;;;8.15;100.00;99566.72;5018385;28;20301;-62
2023/03/03 09:55:02;;;;;;;0.50;0.50;;;;;;;8.16;100.00;99560.75;5018177;28;20205;-61
2023/03/03 09:57:43;;;;;;;0.50;0.50;;;;;;;8.10;100.00;99558.31;5020839;28;20198;-62
2023/03/03 10:00:29;;;;;;;0.47;0.47;;;;;;;8.10;100.00;99558.31;5024088;28;20208;-62
2023/03/03 10:03:15;;;;;;;0.53;0.53;;;;;;;8.04;100.00;99550.78;5020365;28;20271;-62
2023/03/03 10:05:51;;;;;;;0.57;0.57;;;;;;;8.02;100.00;99551.63;5016331;28;20248;-60
2023/03/03 10:08:45;;;;;;;0.50;0.50;;;;;;;8.01;100.00;99548.28;5016837;28;20210;-60
2023/03/03 10:11:19;;;;;;;0.43;0.43;;;;;;;7.96;100.00;99554.31;5022993;28;20260;-59
2023/03/03 10:14:17;;;;;;;0.50;0.50;;;;;;;7.97;100.00;99551.72;5020242;28;20205;-62
2023/03/03 10:17:15;;;;;;;0.57;0.57;;;;;;;7.99;100.00;99549.97;5017888;28;20206;-62
2023/03/03 10:19:54;;;;;;;0.70;0.70;;;;;;;7.86;100.00;99525.53;5027094;28;20217;-62
2023/03/03 10:22:29;;;;;;;0.50;0.50;;;;;;;8.00;100.00;99544.03;5015443;28;20206;-63
2023/03/03 10:25:21;;;;;;;0.50;0.50;;;;;;;8.09;100.00;99540.47;5015021;28;20206;-61
2023/03/03 10:28:01;;;;;;;0.50;0.50;;;;;;;8.17;100.00;99536.91;5015775;28;20213;-62
2023/03/03 10:30:42;;;;;;;0.40;0.40;;;;;;;8.24;100.00;99535.91;5021196;28;20627;-62
2023/03/03 10:33:17;;;;;;;1.60;1.17;;;;;;;8.29;100.00;99535.88;5021879;28;20230;-62
2023/03/03 10:36:02;;;;;;;0.50;0.50;;;;;;;8.27;100.00;99528.19;5021579;28;20209;-62
2023/03/03 10:38:41;;;;;;;0.47;0.47;;;;;;;8.40;100.00;99532.22;5017371;28;20221;-65
2023/03/03 10:41:26;;;;;;;0.50;0.50;;;;;;;8.43;100.00;99521.13;5018263;28;20264;-61
2023/03/03 10:44:08;;;;;;;0.50;0.50;;;;;;;8.39;100.00;99530.56;5016009;28;20212;-62
2023/03/03 10:46:58;;;;;;;0.70;0.70;;;;;;;8.44;100.00;99523.63;5018949;28;20693;-62
2023/03/03 10:49:45;;;;;;;0.40;0.40;;;;;;;8.48;100.00;99523.56;5022922;28;20221;-61
2023/03/03 10:52:22;;;;;;;0.40;0.40;;;;;;;8.34;100.00;99506.81;5019585;28;20214;-61
2023/03/03 10:55:08;;;;;;;0.40;0.40;;;;;;;8.42;100.00;99504.09;5020807;28;20628;-61
2023/03/03 10:57:42;;;;;;;0.50;0.50;;;;;;;8.51;100.00;99505.63;5013871;28;20202;-61
2023/03/03 11:00:19;;;;;;;0.50;0.50;;;;;;;8.58;100.00;99513.16;5015350;28;20253;-61
2023/03/03 11:03:13;;;;;;;0.80;0.80;;;;;;;8.62;100.00;99508.81;5011261;28;20212;-61
2023/03/03 11:05:42;;;;;;;0.60;0.60;;;;;;;8.73;100.00;99501.75;5014354;28;20216;-62
2023/03/03 11:08:15;;;;;;;1.57;1.57;;;;;;;8.70;100.00;99471.16;5017442;28;20686;-61
2023/03/03 11:10:52;;;;;;;0.50;0.50;;;;;;;8.94;100.00;99488.53;5018291;28;20224;-61
2023/03/03 11:13:26;;;;;;;0.53;0.53;;;;;;;8.89;100.00;99469.88;5019542;28;20216;-61
2023/03/03 11:16:06;;;;;;;0.60;0.60;;;;;;;9.07;100.00;99494.22;5022148;28;20197;-61
2023/03/03 11:18:49;;;;;;;0.57;0.57;;;;;;;9.12;100.00;99488.09;5024571;28;20206;-61
2023/03/03 11:21:22;;;;;;;0.50;0.50;;;;;;;9.14;100.00;99486.38;5022776;28;20248;-61
2023/03/03 11:24:19;;;;;;;0.57;0.57;;;;;;;9.17;100.00;99483.75;5018295;28;20213;-60
2023/03/03 11:26:59;;;;;;;0.60;0.60;;;;;;;9.07;100.00;99463.53;5015480;28;20260;-61
2023/03/03 11:29:44;;;;;;;0.50;0.50;;;;;;;9.17;100.00;99490.56;5021718;28;20601;-61
2023/03/03 11:32:23;;;;;;;0.47;0.47;;;;;;;9.21;100.00;99482.78;5015986;28;20247;-61
2023/03/03 11:35:05;;;;;;;0.50;0.50;;;;;;;9.27;100.00;99484.38;5018627;28;20293;-60
2023/03/03 11:37:41;;;;;;;0.60;0.60;;;;;;;9.31;100.00;99478.28;5022002;28;20531;-61
2023/03/03 11:40:16;;;;;;;1.37;1.37;;;;;;;9.23;100.00;99478.47;5017586;28;21013;-61
2023/03/03 11:42:55;;;;;;;0.60;0.60;;;;;;;9.32;100.00;99479.97;5016820;28;20211;-61
2023/03/03 11:45:28;;;;;;;0.43;0.43;;;;;;;9.38;100.00;99478.09;5021116;28;20621;-61
2023/03/03 11:48:02;;;;;;;0.50;0.50;;;;;;;9.45;100.00;99471.97;5022588;28;20205;-61
2023/03/03 11:50:36;;;;;;;0.50;0.50;;;;;;;9.50;100.00;99462.44;5018767;28;21581;-61
2023/03/03 11:53:13;;;;;;;0.50;0.50;;;;;;;9.53;100.00;99459.00;5016628;28;20201;-61